ROMMA est une association bénévole à but non lucratif. Votre soutien est indispensable : ADHERER à ROMMA ou FAIRE un DON

Briord - (01, Ain)

Bugey (281 m)   Longitude: 05° 29' 13" E   Latitude: 45° 46' 37" N Station partenaire n°15
 

Détail journalier du     <<     >>

Température Precipitation Humidité Pression Vent Dir Rafale Dir. rafale Ensol.
Heure (°C) (mm) (%) (hPa) (km/h) (km/h) (min)
01:00 -2.6092102200---0
02:00 -2.4092102200---0
03:00 -2.1092102200---0
04:00 -1.8092102200---0
05:00 -2.0091102100---0
06:00 -2.8092102100---0
07:00 -3.1092102100---0
08:00 -4.0092102100---0
09:00 -2.4092102100---25
10:00 -1.2091102100---20
11:00 0.20.287102100---0
12:00 2.80.479102002O50
13:00 2.30.27910201ONO5O35
14:00 3.60.277101902ONO15
15:00 4.1076101802ONO0
16:00 6.4069101706SSE35
17:00 4.9082101703E45
18:00 1.2090101606E5
19:00 1.1092101502ESE0
20:00 0.6092101406ESE0
21:00 -0.2093101300---0
22:00 -0.4093101200---0
23:00 -0.5093101100---0
minuit -0.9094101000---0

Graphique du 26-01-2019

 

Serveur OMMA